Stove Tradition — LAHD5 — position and weather

sailwx.info

Track history (hours):
 
Tides and Currents Weather Stations Pressure Air Temp Water Temp Dewpoint Dewpoint Depression Visibility Wind Speed Wind Dir Waves Ship Positions

Stove Tradition

Last reported at 2016-Feb-21 12:29 UTC. Time now 2016-Sep-27 22:25 UTC.
Position N 30°16' E 121°55'.
Warning: this ship's position is months out of date.

Length 186 m; draft 7 m.

Type: Ship. MMSI: 259962000.

Date/timePositionNaut miles runAvg speedWind from/ knotsBaromVisibWave heightAir tempDewpointWater temp
2016-Feb-21 12:29N 30°16' E 121°55'23 5.8
2016-Feb-21 08:30N 30°22' E 122°21'39 6.5
2016-Feb-21 02:26N 29°48' E 122°42'17 3.3
2016-Feb-20 21:13N 29°42' E 122°23'0 0.0
2016-Feb-19 13:09N 29°42' E 122°23'0 0.3
2016-Feb-19 12:29N 29°42' E 122°23'2 2.2
2016-Feb-19 11:30N 29°42' E 122°21'  
2016-Feb-16 13:33N 22°47' E 120°03'6 5.8
2016-Feb-16 12:33N 22°43' E 120°08'6 5.9
2016-Feb-16 11:33N 22°39' E 120°12'6 1.7
2016-Feb-16 08:15N 22°36' E 120°18'0 0.0
2016-Feb-16 06:15N 22°36' E 120°18'0 0.0
2016-Feb-16 05:03N 22°36' E 120°18'0 0.0
2016-Feb-16 04:33N 22°36' E 120°18'0 0.0
2016-Feb-16 03:09N 22°36' E 120°18'0 0.0
2016-Feb-16 02:33N 22°36' E 120°18'0 0.0
2016-Feb-16 01:21N 22°36' E 120°18'0 0.0
2016-Feb-16 00:33N 22°36' E 120°18'0 0.0
2016-Feb-15 23:33N 22°36' E 120°18'0 0.0
2016-Feb-15 22:33N 22°36' E 120°18'0 0.0
2016-Feb-15 21:33N 22°36' E 120°18'0 0.0
2016-Feb-15 20:33N 22°36' E 120°18'0 0.0
2016-Feb-15 19:33N 22°36' E 120°18'0 0.0
2016-Feb-15 18:33N 22°36' E 120°18'0 0.0
2016-Feb-15 17:33N 22°36' E 120°18'0 0.0
2016-Feb-15 16:33N 22°36' E 120°18'0 0.0
2016-Feb-15 15:33N 22°36' E 120°18'0 0.0
2016-Feb-15 14:27N 22°36' E 120°18'0 0.0
2016-Feb-15 13:33N 22°36' E 120°18'0 0.0
2016-Feb-15 12:33N 22°36' E 120°18'0 0.0
2016-Feb-15 11:33N 22°36' E 120°18'0 0.0
2016-Feb-15 10:33N 22°36' E 120°18'0 0.0
2016-Feb-15 09:33N 22°36' E 120°18'0 0.0
2016-Feb-15 08:15N 22°36' E 120°18'0 0.0
2016-Feb-15 07:33N 22°36' E 120°18'0 0.0
2016-Feb-15 04:33N 22°36' E 120°18'0 0.0
2016-Feb-15 03:27N 22°36' E 120°18'0 0.0
2016-Feb-15 02:15N 22°36' E 120°18'0 0.0
2016-Feb-15 01:33N 22°36' E 120°18'0 0.0
2016-Feb-15 00:33N 22°36' E 120°18'0 0.0
2016-Feb-14 23:33N 22°36' E 120°18'0 0.0
2016-Feb-14 22:27N 22°36' E 120°18'0 0.0
2016-Feb-14 21:33N 22°36' E 120°18'0 0.0
2016-Feb-14 20:33N 22°36' E 120°18'0 0.0
2016-Feb-14 19:33N 22°36' E 120°18'0 0.0
2016-Feb-14 18:33N 22°36' E 120°18'0 0.0
2016-Feb-14 17:33N 22°36' E 120°18'0 0.0
2016-Feb-14 16:33N 22°36' E 120°18'0 0.0
2016-Feb-14 15:33N 22°36' E 120°18'0 0.0
2016-Feb-14 14:33N 22°36' E 120°18'0 0.0
2016-Feb-14 13:33N 22°36' E 120°18'0 0.0
2016-Feb-14 12:33N 22°36' E 120°18'0 0.0
2016-Feb-14 11:33N 22°36' E 120°18'0 0.0
2016-Feb-14 10:33N 22°36' E 120°18'0 0.0
2016-Feb-14 09:27N 22°36' E 120°18'0 0.0
2016-Feb-14 08:15N 22°36' E 120°18'0 0.0
2016-Feb-14 07:27N 22°36' E 120°18'0 0.0
2016-Feb-14 06:27N 22°36' E 120°18'0 0.0
2016-Feb-14 05:27N 22°36' E 120°18'0 0.0
2016-Feb-14 03:03N 22°36' E 120°18'0 0.0
2016-Feb-14 01:15N 22°36' E 120°18'0 0.0
2016-Feb-14 00:33N 22°36' E 120°18'0 0.0
2016-Feb-13 23:33N 22°36' E 120°18'0 0.0
2016-Feb-13 22:33N 22°36' E 120°18'0 0.0
2016-Feb-13 21:33N 22°36' E 120°18'0 0.0
2016-Feb-13 20:33N 22°36' E 120°18'0 0.0
2016-Feb-13 19:33N 22°36' E 120°18'0 0.0
2016-Feb-13 18:33N 22°36' E 120°18'0 0.0
2016-Feb-13 17:33N 22°36' E 120°18'0 0.0
2016-Feb-13 16:33N 22°36' E 120°18'0 0.0
2016-Feb-13 15:33N 22°36' E 120°18'0 0.0
2016-Feb-13 14:27N 22°36' E 120°18'0 0.0
2016-Feb-13 13:15N 22°36' E 120°18'0 0.0
2016-Feb-13 12:33N 22°36' E 120°18'0 0.0
2016-Feb-13 10:27N 22°36' E 120°18'0 0.0
2016-Feb-13 09:15N 22°36' E 120°18'0 0.0
2016-Feb-13 07:27N 22°36' E 120°18'0 0.0
2016-Feb-13 06:21N 22°36' E 120°18'0 0.0
2016-Feb-13 04:15N 22°36' E 120°18'0 0.0
2016-Feb-13 03:33N 22°36' E 120°18'0 0.0
2016-Feb-13 02:33N 22°36' E 120°18'0 0.0
2016-Feb-13 01:15N 22°36' E 120°18'0 0.0
2016-Feb-13 00:21N 22°36' E 120°18'0 0.0
2016-Feb-12 23:33N 22°36' E 120°18'0 0.0
2016-Feb-12 22:33N 22°36' E 120°18'0 0.0
2016-Feb-12 21:33N 22°36' E 120°18'0 0.0
2016-Feb-12 20:33N 22°36' E 120°18'0 0.0
2016-Feb-12 19:33N 22°36' E 120°18'0 0.0
2016-Feb-12 18:33N 22°36' E 120°18'0 0.0
2016-Feb-12 17:27N 22°36' E 120°18'0 0.0
2016-Feb-12 16:33N 22°36' E 120°18'0 0.0
2016-Feb-12 15:27N 22°36' E 120°18'0 0.0
2016-Feb-12 14:33N 22°36' E 120°18'0 0.0
2016-Feb-12 13:33N 22°36' E 120°18'0 0.0
2016-Feb-12 12:33N 22°36' E 120°18'0 0.0
2016-Feb-12 11:33N 22°36' E 120°18'0 0.0
2016-Feb-12 10:33N 22°36' E 120°18'0 0.0
2016-Feb-12 09:33N 22°36' E 120°18'0 0.0
2016-Feb-12 08:33N 22°36' E 120°18'0 0.0
2016-Feb-12 07:33N 22°36' E 120°18'0 0.0
2016-Feb-12 06:27N 22°36' E 120°18'0 0.0
2016-Feb-12 05:33N 22°36' E 120°18'0 0.0
2016-Feb-12 04:33N 22°36' E 120°18'0 0.0
2016-Feb-12 03:33N 22°36' E 120°18'0 0.0
2016-Feb-12 02:33N 22°36' E 120°18'0 0.0
2016-Feb-12 01:33N 22°36' E 120°18'0 0.0
2016-Feb-12 00:33N 22°36' E 120°18'0 0.0
2016-Feb-11 23:33N 22°36' E 120°18'0 0.0
2016-Feb-11 22:33N 22°36' E 120°18'0 0.0
2016-Feb-11 21:33N 22°36' E 120°18'0 0.0
2016-Feb-11 20:27N 22°36' E 120°18'0 0.0
2016-Feb-11 19:33N 22°36' E 120°18'0 0.0
2016-Feb-11 18:33N 22°36' E 120°18'0 0.0
2016-Feb-11 17:33N 22°36' E 120°18'0 0.0
2016-Feb-11 16:33N 22°36' E 120°18'0 0.0
2016-Feb-11 15:33N 22°36' E 120°18'0 0.0
2016-Feb-11 14:15N 22°36' E 120°18'0 0.0
2016-Feb-11 13:33N 22°36' E 120°18'0 0.0
2016-Feb-11 12:33N 22°36' E 120°18'  
Track history (hours):
 
Tides and Currents Weather Stations Pressure Air Temp Water Temp Dewpoint Dewpoint Depression Visibility Wind Speed Wind Dir Waves Ship Positions

Stove Tradition

Last reported at 2016-Feb-21 12:29 UTC. Time now 2016-Sep-27 22:25 UTC.
Position N 30°16' E 121°55'.
Warning: this ship's position is months out of date.

Length 186 m; draft 7 m.

Type: Ship. MMSI: 259962000.

Date/timePositionNaut miles runAvg speedWind from/ knotsBaromVisibWave heightAir tempDewpointWater temp
2016-Feb-21 12:29N 30°16' E 121°55'23 5.8
2016-Feb-21 08:30N 30°22' E 122°21'39 6.5
2016-Feb-21 02:26N 29°48' E 122°42'17 3.3
2016-Feb-20 21:13N 29°42' E 122°23'0 0.0
2016-Feb-19 13:09N 29°42' E 122°23'0 0.3
2016-Feb-19 12:29N 29°42' E 122°23'2 2.2
2016-Feb-19 11:30N 29°42' E 122°21'  
2016-Feb-16 13:33N 22°47' E 120°03'6 5.8
2016-Feb-16 12:33N 22°43' E 120°08'6 5.9
2016-Feb-16 11:33N 22°39' E 120°12'6 1.7
2016-Feb-16 08:15N 22°36' E 120°18'0 0.0
2016-Feb-16 06:15N 22°36' E 120°18'0 0.0
2016-Feb-16 05:03N 22°36' E 120°18'0 0.0
2016-Feb-16 04:33N 22°36' E 120°18'0 0.0
2016-Feb-16 03:09N 22°36' E 120°18'0 0.0
2016-Feb-16 02:33N 22°36' E 120°18'0 0.0
2016-Feb-16 01:21N 22°36' E 120°18'0 0.0
2016-Feb-16 00:33N 22°36' E 120°18'0 0.0
2016-Feb-15 23:33N 22°36' E 120°18'0 0.0
2016-Feb-15 22:33N 22°36' E 120°18'0 0.0
2016-Feb-15 21:33N 22°36' E 120°18'0 0.0
2016-Feb-15 20:33N 22°36' E 120°18'0 0.0
2016-Feb-15 19:33N 22°36' E 120°18'0 0.0
2016-Feb-15 18:33N 22°36' E 120°18'0 0.0
2016-Feb-15 17:33N 22°36' E 120°18'0 0.0
2016-Feb-15 16:33N 22°36' E 120°18'0 0.0
2016-Feb-15 15:33N 22°36' E 120°18'0 0.0
2016-Feb-15 14:27N 22°36' E 120°18'0 0.0
2016-Feb-15 13:33N 22°36' E 120°18'0 0.0
2016-Feb-15 12:33N 22°36' E 120°18'0 0.0
2016-Feb-15 11:33N 22°36' E 120°18'0 0.0
2016-Feb-15 10:33N 22°36' E 120°18'0 0.0
2016-Feb-15 09:33N 22°36' E 120°18'0 0.0
2016-Feb-15 08:15N 22°36' E 120°18'0 0.0
2016-Feb-15 07:33N 22°36' E 120°18'0 0.0
2016-Feb-15 04:33N 22°36' E 120°18'0 0.0
2016-Feb-15 03:27N 22°36' E 120°18'0 0.0
2016-Feb-15 02:15N 22°36' E 120°18'0 0.0
2016-Feb-15 01:33N 22°36' E 120°18'0 0.0
2016-Feb-15 00:33N 22°36' E 120°18'0 0.0
2016-Feb-14 23:33N 22°36' E 120°18'0 0.0
2016-Feb-14 22:27N 22°36' E 120°18'0 0.0
2016-Feb-14 21:33N 22°36' E 120°18'0 0.0
2016-Feb-14 20:33N 22°36' E 120°18'0 0.0
2016-Feb-14 19:33N 22°36' E 120°18'0 0.0
2016-Feb-14 18:33N 22°36' E 120°18'0 0.0
2016-Feb-14 17:33N 22°36' E 120°18'0 0.0
2016-Feb-14 16:33N 22°36' E 120°18'0 0.0
2016-Feb-14 15:33N 22°36' E 120°18'0 0.0
2016-Feb-14 14:33N 22°36' E 120°18'0 0.0
2016-Feb-14 13:33N 22°36' E 120°18'0 0.0
2016-Feb-14 12:33N 22°36' E 120°18'0 0.0
2016-Feb-14 11:33N 22°36' E 120°18'0 0.0
2016-Feb-14 10:33N 22°36' E 120°18'0 0.0
2016-Feb-14 09:27N 22°36' E 120°18'0 0.0
2016-Feb-14 08:15N 22°36' E 120°18'0 0.0
2016-Feb-14 07:27N 22°36' E 120°18'0 0.0
2016-Feb-14 06:27N 22°36' E 120°18'0 0.0
2016-Feb-14 05:27N 22°36' E 120°18'0 0.0
2016-Feb-14 03:03N 22°36' E 120°18'0 0.0
2016-Feb-14 01:15N 22°36' E 120°18'0 0.0
2016-Feb-14 00:33N 22°36' E 120°18'0 0.0
2016-Feb-13 23:33N 22°36' E 120°18'0 0.0
2016-Feb-13 22:33N 22°36' E 120°18'0 0.0
2016-Feb-13 21:33N 22°36' E 120°18'0 0.0
2016-Feb-13 20:33N 22°36' E 120°18'0 0.0
2016-Feb-13 19:33N 22°36' E 120°18'0 0.0
2016-Feb-13 18:33N 22°36' E 120°18'0 0.0
2016-Feb-13 17:33N 22°36' E 120°18'0 0.0
2016-Feb-13 16:33N 22°36' E 120°18'0 0.0
2016-Feb-13 15:33N 22°36' E 120°18'0 0.0
2016-Feb-13 14:27N 22°36' E 120°18'0 0.0
2016-Feb-13 13:15N 22°36' E 120°18'0 0.0
2016-Feb-13 12:33N 22°36' E 120°18'0 0.0
2016-Feb-13 10:27N 22°36' E 120°18'0 0.0
2016-Feb-13 09:15N 22°36' E 120°18'0 0.0
2016-Feb-13 07:27N 22°36' E 120°18'0 0.0
2016-Feb-13 06:21N 22°36' E 120°18'0 0.0
2016-Feb-13 04:15N 22°36' E 120°18'0 0.0
2016-Feb-13 03:33N 22°36' E 120°18'0 0.0
2016-Feb-13 02:33N 22°36' E 120°18'0 0.0
2016-Feb-13 01:15N 22°36' E 120°18'0 0.0
2016-Feb-13 00:21N 22°36' E 120°18'0 0.0
2016-Feb-12 23:33N 22°36' E 120°18'0 0.0
2016-Feb-12 22:33N 22°36' E 120°18'0 0.0
2016-Feb-12 21:33N 22°36' E 120°18'0 0.0
2016-Feb-12 20:33N 22°36' E 120°18'0 0.0
2016-Feb-12 19:33N 22°36' E 120°18'0 0.0
2016-Feb-12 18:33N 22°36' E 120°18'0 0.0
2016-Feb-12 17:27N 22°36' E 120°18'0 0.0
2016-Feb-12 16:33N 22°36' E 120°18'0 0.0
2016-Feb-12 15:27N 22°36' E 120°18'0 0.0
2016-Feb-12 14:33N 22°36' E 120°18'0 0.0
2016-Feb-12 13:33N 22°36' E 120°18'0 0.0
2016-Feb-12 12:33N 22°36' E 120°18'0 0.0
2016-Feb-12 11:33N 22°36' E 120°18'0 0.0
2016-Feb-12 10:33N 22°36' E 120°18'0 0.0
2016-Feb-12 09:33N 22°36' E 120°18'0 0.0
2016-Feb-12 08:33N 22°36' E 120°18'0 0.0
2016-Feb-12 07:33N 22°36' E 120°18'0 0.0
2016-Feb-12 06:27N 22°36' E 120°18'0 0.0
2016-Feb-12 05:33N 22°36' E 120°18'0 0.0
2016-Feb-12 04:33N 22°36' E 120°18'0 0.0
2016-Feb-12 03:33N 22°36' E 120°18'0 0.0
2016-Feb-12 02:33N 22°36' E 120°18'0 0.0
2016-Feb-12 01:33N 22°36' E 120°18'0 0.0
2016-Feb-12 00:33N 22°36' E 120°18'0 0.0
2016-Feb-11 23:33N 22°36' E 120°18'0 0.0
2016-Feb-11 22:33N 22°36' E 120°18'0 0.0
2016-Feb-11 21:33N 22°36' E 120°18'0 0.0
2016-Feb-11 20:27N 22°36' E 120°18'0 0.0
2016-Feb-11 19:33N 22°36' E 120°18'0 0.0
2016-Feb-11 18:33N 22°36' E 120°18'0 0.0
2016-Feb-11 17:33N 22°36' E 120°18'0 0.0
2016-Feb-11 16:33N 22°36' E 120°18'0 0.0
2016-Feb-11 15:33N 22°36' E 120°18'0 0.0
2016-Feb-11 14:15N 22°36' E 120°18'0 0.0
2016-Feb-11 13:33N 22°36' E 120°18'0 0.0
2016-Feb-11 12:33N 22°36' E 120°18'  

Dump ship's entire track history